createdAt,value
2022-12-05T00:01:21.555Z,98873.28
2022-12-05T00:03:50.162Z,98869.97
2022-12-05T00:06:18.468Z,98874.22
2022-12-05T00:08:45.892Z,98874.78
2022-12-05T00:11:14.433Z,98871.50
2022-12-05T00:13:41.517Z,98873.34
2022-12-05T00:16:10.781Z,98869.84
2022-12-05T00:18:37.736Z,98870.75
2022-12-05T00:21:04.829Z,98883.84
2022-12-05T00:23:31.414Z,98885.41
2022-12-05T00:26:02.417Z,98890.75
2022-12-05T00:28:29.015Z,98882.59
2022-12-05T00:30:55.703Z,98879.47
2022-12-05T00:33:22.365Z,98889.69
2022-12-05T00:35:49.085Z,98884.53
2022-12-05T00:38:15.648Z,98887.09
2022-12-05T00:40:42.304Z,98897.25
2022-12-05T00:43:08.903Z,98891.91
2022-12-05T00:45:35.482Z,98895.66
2022-12-05T00:48:02.173Z,98895.56
2022-12-05T00:50:28.804Z,98905.97
2022-12-05T00:52:55.439Z,98902.53
2022-12-05T00:55:22.056Z,98907.41
2022-12-05T00:57:48.727Z,98912.63
2022-12-05T01:00:15.895Z,98900.50
2022-12-05T01:02:42.523Z,98900.50
2022-12-05T01:05:09.355Z,98904.88
2022-12-05T01:07:36.013Z,98902.06
2022-12-05T01:10:02.632Z,98904.53
2022-12-05T01:12:29.304Z,98902.19
2022-12-05T01:14:55.925Z,98900.78
2022-12-05T01:17:22.533Z,98908.41
2022-12-05T01:19:49.099Z,98909.38
2022-12-05T01:22:16.376Z,98903.31
2022-12-05T01:24:43.162Z,98902.97
2022-12-05T01:27:09.870Z,98907.41
2022-12-05T01:29:36.474Z,98907.41
2022-12-05T01:32:04.071Z,98910.81
2022-12-05T01:34:30.760Z,98912.78
2022-12-05T01:36:57.394Z,98915.19
2022-12-05T01:39:23.992Z,98909.00
2022-12-05T01:41:51.077Z,98909.97
2022-12-05T01:44:17.711Z,98907.34
2022-12-05T01:46:49.135Z,98910.81
2022-12-05T01:49:18.272Z,98914.00
2022-12-05T01:51:51.277Z,98909.25
2022-12-05T01:54:19.656Z,98908.47
2022-12-05T01:56:53.824Z,98912.63
2022-12-05T01:59:22.831Z,98905.31
2022-12-05T02:01:49.796Z,98907.13
2022-12-05T02:04:16.798Z,98907.28
2022-12-05T02:06:43.641Z,98905.66
2022-12-05T02:09:10.284Z,98905.59
2022-12-05T02:11:47.197Z,98907.91
2022-12-05T02:14:40.816Z,98902.81
2022-12-05T02:17:33.367Z,98899.47
2022-12-05T02:20:30.544Z,98905.59
2022-12-05T02:23:14.973Z,98904.75
2022-12-05T02:25:59.822Z,98907.41
2022-12-05T02:28:46.630Z,98913.94
2022-12-05T02:31:38.074Z,98909.97
2022-12-05T02:34:21.459Z,98905.59
2022-12-05T02:36:57.475Z,98907.06
2022-12-05T02:39:40.309Z,98908.84
2022-12-05T02:42:31.543Z,98903.63
2022-12-05T02:45:04.220Z,98908.13
2022-12-05T02:47:33.612Z,98903.03
2022-12-05T02:50:00.609Z,98910.94
2022-12-05T02:52:30.205Z,98898.03
2022-12-05T02:54:57.119Z,98901.56
2022-12-05T02:57:26.516Z,98898.81
2022-12-05T02:59:53.012Z,98894.66
2022-12-05T03:02:24.709Z,98896.50
2022-12-05T03:04:51.476Z,98891.91
2022-12-05T03:07:21.133Z,98886.69
2022-12-05T03:09:55.014Z,98891.13
2022-12-05T03:12:26.753Z,98890.22
2022-12-05T03:15:03.185Z,98887.59
2022-12-05T03:17:51.724Z,98890.22
2022-12-05T03:20:28.482Z,98887.72
2022-12-05T03:23:03.147Z,98893.72
2022-12-05T03:25:52.874Z,98892.03
2022-12-05T03:28:29.574Z,98888.47
2022-12-05T03:31:02.231Z,98889.31
2022-12-05T03:33:36.102Z,98891.91
2022-12-05T03:36:26.250Z,98897.13
2022-12-05T03:39:01.926Z,98888.47
2022-12-05T03:41:35.247Z,98899.66
2022-12-05T03:44:07.612Z,98896.34
2022-12-05T03:46:40.734Z,98902.34
2022-12-05T03:49:15.019Z,98896.97
2022-12-05T03:51:50.580Z,98901.28
2022-12-05T03:54:23.676Z,98897.75
2022-12-05T03:57:02.788Z,98898.03
2022-12-05T03:59:39.713Z,98903.78
2022-12-05T04:02:16.932Z,98894.19
2022-12-05T04:05:07.005Z,98906.28
2022-12-05T04:07:38.533Z,98905.44
2022-12-05T04:10:13.588Z,98906.44
2022-12-05T04:12:43.614Z,98905.59
2022-12-05T04:15:22.574Z,98910.66
2022-12-05T04:17:59.662Z,98909.09
2022-12-05T04:20:50.417Z,98904.69
2022-12-05T04:23:17.752Z,98904.75
2022-12-05T04:25:59.896Z,98903.78
2022-12-05T04:28:37.881Z,98914.91
2022-12-05T04:31:12.098Z,98914.06
2022-12-05T04:33:44.504Z,98922.09
2022-12-05T04:36:20.049Z,98909.91
2022-12-05T04:39:05.541Z,98920.97
2022-12-05T04:41:36.929Z,98921.03
2022-12-05T04:44:09.513Z,98932.25
2022-12-05T04:46:38.331Z,98927.03
2022-12-05T04:49:08.726Z,98930.63
2022-12-05T04:51:38.412Z,98930.50
2022-12-05T04:54:14.708Z,98934.81
2022-12-05T04:56:44.047Z,98923.50
2022-12-05T04:59:10.892Z,98928.78
2022-12-05T05:01:50.716Z,98927.09
2022-12-05T05:04:22.165Z,98924.22
2022-12-05T05:06:49.185Z,98931.13
2022-12-05T05:09:15.787Z,98935.22
2022-12-05T05:11:42.521Z,98934.44
2022-12-05T05:14:09.227Z,98930.91
2022-12-05T05:16:40.830Z,98937.88
2022-12-05T05:19:08.611Z,98942.25
2022-12-05T05:21:41.161Z,98939.59
2022-12-05T05:24:09.853Z,98937.88
2022-12-05T05:26:40.452Z,98949.97
2022-12-05T05:29:07.839Z,98951.72
2022-12-05T05:31:35.273Z,98947.28
2022-12-05T05:34:08.910Z,98948.16
2022-12-05T05:36:36.272Z,98946.50
2022-12-05T05:39:04.315Z,98955.25
2022-12-05T05:41:36.503Z,98944.03
2022-12-05T05:44:04.785Z,98953.53
2022-12-05T05:46:34.092Z,98950.03
2022-12-05T05:49:00.914Z,98957.84
2022-12-05T05:51:29.487Z,98962.28
2022-12-05T05:53:57.712Z,98961.38
2022-12-05T05:56:24.670Z,98968.34
2022-12-05T05:59:00.215Z,98962.28
2022-12-05T06:01:27.013Z,98967.38
2022-12-05T06:03:54.056Z,98964.78
2022-12-05T06:06:21.487Z,98965.69
2022-12-05T06:08:48.484Z,98967.38
2022-12-05T06:11:24.583Z,98963.00
2022-12-05T06:13:52.650Z,98967.38
2022-12-05T06:16:19.783Z,98959.44
2022-12-05T06:18:46.710Z,98967.97
2022-12-05T06:21:16.396Z,98964.66
2022-12-05T06:23:43.681Z,98967.38
2022-12-05T06:26:13.575Z,98970.78
2022-12-05T06:28:40.995Z,98972.47
2022-12-05T06:31:09.822Z,98975.84
2022-12-05T06:33:36.507Z,98971.63
2022-12-05T06:36:06.024Z,98980.38
2022-12-05T06:38:32.717Z,98976.91
2022-12-05T06:40:59.538Z,98983.09
2022-12-05T06:43:26.416Z,98982.13
2022-12-05T06:45:53.130Z,98981.34
2022-12-05T06:48:19.790Z,98986.56
2022-12-05T06:50:53.373Z,98987.34
2022-12-05T06:53:20.408Z,98997.00
2022-12-05T06:56:01.533Z,99000.59
2022-12-05T06:58:28.695Z,98990.03
2022-12-05T07:01:27.816Z,98989.75
2022-12-05T07:03:54.439Z,98995.03
2022-12-05T07:06:21.062Z,98991.38
2022-12-05T07:08:47.810Z,98999.06
2022-12-05T07:11:14.456Z,98998.44
2022-12-05T07:13:41.000Z,98995.03
2022-12-05T07:16:08.516Z,98996.72
2022-12-05T07:18:36.525Z,99003.78
2022-12-05T07:21:14.781Z,99003.78
2022-12-05T07:23:44.075Z,99000.34
2022-12-05T07:26:14.790Z,98998.31
2022-12-05T07:28:41.506Z,99001.66
2022-12-05T07:31:10.689Z,98999.69
2022-12-05T07:33:38.037Z,98998.84
2022-12-05T07:36:14.206Z,99010.13
2022-12-05T07:38:42.258Z,99004.16
2022-12-05T07:41:14.010Z,99011.09
2022-12-05T07:43:41.899Z,99009.44
2022-12-05T07:46:11.787Z,99018.13
2022-12-05T07:48:38.917Z,99018.91
2022-12-05T07:51:07.637Z,99014.44
2022-12-05T07:53:35.106Z,99016.94
2022-12-05T07:56:04.133Z,99035.16
2022-12-05T07:58:32.221Z,99031.53
2022-12-05T08:01:13.234Z,99033.28
2022-12-05T08:03:40.098Z,99046.41
2022-12-05T08:06:10.171Z,99040.22
2022-12-05T08:08:36.976Z,99046.28
2022-12-05T08:11:10.450Z,99049.69
2022-12-05T08:13:37.556Z,99049.81
2022-12-05T08:16:06.305Z,99051.44
2022-12-05T08:18:33.338Z,99062.81
2022-12-05T08:21:05.199Z,99052.31
2022-12-05T08:23:32.807Z,99054.75
2022-12-05T08:26:04.820Z,99065.19
2022-12-05T08:28:32.429Z,99066.91
2022-12-05T08:31:11.881Z,99066.00
2022-12-05T08:33:38.590Z,99064.09
2022-12-05T08:36:07.762Z,99063.13
2022-12-05T08:38:34.935Z,99059.59
2022-12-05T08:41:06.127Z,99063.75
2022-12-05T08:43:33.150Z,99061.84
2022-12-05T08:46:01.024Z,99068.75
2022-12-05T08:48:30.036Z,99069.59
2022-12-05T08:50:57.752Z,99077.44
2022-12-05T08:53:24.678Z,99078.88
2022-12-05T08:55:51.265Z,99081.47
2022-12-05T08:58:18.037Z,99085.56
2022-12-05T09:00:44.604Z,99078.53
2022-12-05T09:03:12.409Z,99087.22
2022-12-05T09:05:39.708Z,99092.38
2022-12-05T09:08:09.261Z,99091.66
2022-12-05T09:10:38.010Z,99094.13
2022-12-05T09:13:04.662Z,99093.34
2022-12-05T09:15:31.385Z,99096.88
2022-12-05T09:17:58.095Z,99096.81
2022-12-05T09:20:24.777Z,99089.78
2022-12-05T09:22:52.626Z,99094.13
2022-12-05T09:25:19.282Z,99091.38
2022-12-05T09:27:46.625Z,99101.69
2022-12-05T09:30:14.000Z,99096.38
2022-12-05T09:32:40.723Z,99096.31
2022-12-05T09:35:07.742Z,99104.22
2022-12-05T09:37:41.397Z,99100.00
2022-12-05T09:40:16.610Z,99107.91
2022-12-05T09:43:06.191Z,99107.69
2022-12-05T09:45:35.784Z,99108.75
2022-12-05T09:48:07.705Z,99106.41
2022-12-05T09:50:48.385Z,99109.03
2022-12-05T09:53:28.909Z,99102.88
2022-12-05T09:56:15.032Z,99108.13
2022-12-05T09:58:47.653Z,99102.16
2022-12-05T10:01:42.499Z,99101.25
2022-12-05T10:04:25.761Z,99100.28
2022-12-05T10:06:58.182Z,99100.97
2022-12-05T10:09:58.868Z,99102.66
2022-12-05T10:12:44.187Z,99095.06
2022-12-05T10:15:32.486Z,99098.34
2022-12-05T10:18:01.939Z,99100.91
2022-12-05T10:20:55.152Z,99099.84
2022-12-05T10:23:55.458Z,99093.72
2022-12-05T10:26:15.657Z,99095.34
2022-12-05T10:29:11.996Z,99099.56
2022-12-05T10:31:40.092Z,99093.44
2022-12-05T10:34:13.084Z,99092.44
2022-12-05T10:36:40.127Z,99095.06
2022-12-05T10:39:11.222Z,99108.19
2022-12-05T10:41:38.432Z,99104.72
2022-12-05T10:44:05.760Z,99099.66
2022-12-05T10:46:32.420Z,99105.63
2022-12-05T10:48:59.619Z,99104.94
2022-12-05T10:51:32.665Z,99097.91
2022-12-05T10:54:13.572Z,99093.31
2022-12-05T10:56:46.580Z,99093.38
2022-12-05T10:59:35.255Z,99094.91
2022-12-05T11:02:03.201Z,99094.06
2022-12-05T11:04:43.474Z,99095.75
2022-12-05T11:07:33.965Z,99097.47
2022-12-05T11:10:04.145Z,99093.22
2022-12-05T11:12:33.753Z,99097.47
2022-12-05T11:15:22.837Z,99099.16
2022-12-05T11:17:51.412Z,99097.47
2022-12-05T11:20:17.995Z,99098.25
2022-12-05T11:22:48.883Z,99102.47
2022-12-05T11:25:36.450Z,99093.09
2022-12-05T11:28:18.262Z,99092.09
2022-12-05T11:31:08.659Z,99087.69
2022-12-05T11:33:36.663Z,99080.66
2022-12-05T11:36:14.529Z,99077.97
2022-12-05T11:38:42.016Z,99078.81
2022-12-05T11:41:36.543Z,99083.19
2022-12-05T11:44:09.101Z,99085.19
2022-12-05T11:46:54.169Z,99086.88
2022-12-05T11:49:32.763Z,99081.50
2022-12-05T11:52:08.327Z,99081.22
2022-12-05T11:55:08.931Z,99080.38
2022-12-05T11:57:54.254Z,99079.50
2022-12-05T12:00:29.797Z,99085.59
2022-12-05T12:03:14.757Z,99086.44
2022-12-05T12:06:11.616Z,99095.81
2022-12-05T12:08:52.192Z,99095.06
2022-12-05T12:11:34.993Z,99099.44
2022-12-05T12:14:08.828Z,99100.13
2022-12-05T12:17:05.228Z,99093.22
2022-12-05T12:19:34.863Z,99088.25
2022-12-05T12:22:19.933Z,99085.66
2022-12-05T12:25:03.179Z,99087.34
2022-12-05T12:28:05.215Z,99096.88
2022-12-05T12:30:31.866Z,99100.41
2022-12-05T12:33:30.389Z,99102.19
2022-12-05T12:35:59.832Z,99097.75
2022-12-05T12:38:26.439Z,99100.50
2022-12-05T12:41:01.764Z,99103.88
2022-12-05T12:43:54.261Z,99097.06
2022-12-05T12:46:52.780Z,99102.06
2022-12-05T12:49:36.811Z,99100.28
2022-12-05T12:52:12.170Z,99092.44
2022-12-05T12:55:05.169Z,99091.53
2022-12-05T12:57:32.248Z,99090.59
2022-12-05T13:00:14.926Z,99090.69
2022-12-05T13:02:48.674Z,99090.75
2022-12-05T13:05:32.513Z,99088.81
2022-12-05T13:08:06.818Z,99086.16
2022-12-05T13:10:48.271Z,99088.69
2022-12-05T13:13:25.631Z,99090.31
2022-12-05T13:15:56.565Z,99091.88
2022-12-05T13:18:25.588Z,99089.25
2022-12-05T13:20:58.317Z,99089.25
2022-12-05T13:23:29.499Z,99091.88
2022-12-05T13:25:58.558Z,99090.25
2022-12-05T13:28:44.664Z,99095.41
2022-12-05T13:31:14.213Z,99088.47
2022-12-05T13:33:46.975Z,99098.88
2022-12-05T13:36:33.704Z,99096.19
2022-12-05T13:39:24.901Z,99098.81
2022-12-05T13:42:13.772Z,99106.50
2022-12-05T13:45:06.149Z,99107.41
2022-12-05T13:47:35.564Z,99114.34
2022-12-05T13:50:16.655Z,99105.81
2022-12-05T13:52:49.008Z,99112.00
2022-12-05T13:55:35.629Z,99114.63
2022-12-05T13:58:22.822Z,99114.50
2022-12-05T14:00:52.730Z,99109.25
2022-12-05T14:03:22.349Z,99104.78
2022-12-05T14:05:51.792Z,99106.50
2022-12-05T14:08:30.449Z,99117.09
2022-12-05T14:10:57.013Z,99111.03
2022-12-05T14:13:30.959Z,99116.19
2022-12-05T14:16:40.942Z,99114.41
2022-12-05T14:19:33.981Z,99115.25
2022-12-05T14:22:13.455Z,99115.25
2022-12-05T14:24:49.370Z,99122.19
2022-12-05T14:27:27.171Z,99118.66
2022-12-05T14:30:02.518Z,99118.66
2022-12-05T14:32:36.180Z,99117.00
2022-12-05T14:35:11.640Z,99113.56
2022-12-05T14:37:49.848Z,99105.81
2022-12-05T14:40:37.801Z,99109.31
2022-12-05T14:43:29.134Z,99113.72
2022-12-05T14:45:58.726Z,99108.47
2022-12-05T14:48:31.233Z,99104.16
2022-12-05T14:50:59.428Z,99111.03
2022-12-05T14:53:34.964Z,99109.25
2022-12-05T14:56:01.486Z,99104.94
2022-12-05T14:58:55.922Z,99110.19
2022-12-05T15:01:40.757Z,99112.00
2022-12-05T15:04:19.654Z,99120.63
2022-12-05T15:06:57.762Z,99115.41
2022-12-05T15:09:49.082Z,99112.78
2022-12-05T15:12:39.583Z,99116.31
2022-12-05T15:15:15.453Z,99115.53
2022-12-05T15:17:50.192Z,99115.41
2022-12-05T15:21:18.574Z,99120.63
2022-12-05T15:23:45.508Z,99123.31
2022-12-05T15:26:46.757Z,99118.94
2022-12-05T15:29:29.754Z,99126.84
2022-12-05T15:31:57.831Z,99126.00
2022-12-05T15:34:36.051Z,99128.53
2022-12-05T15:37:08.818Z,99126.72
2022-12-05T15:39:57.074Z,99129.25
2022-12-05T15:42:30.468Z,99128.41
2022-12-05T15:45:12.075Z,99136.16
2022-12-05T15:47:38.990Z,99129.16
2022-12-05T15:50:06.526Z,99128.25
2022-12-05T15:52:58.162Z,99129.25
2022-12-05T15:55:27.837Z,99131.88
2022-12-05T15:58:13.315Z,99130.94
2022-12-05T16:00:44.727Z,99125.72
2022-12-05T16:03:44.145Z,99124.78
2022-12-05T16:06:18.836Z,99135.19
2022-12-05T16:08:47.313Z,99130.94
2022-12-05T16:11:14.973Z,99126.56
2022-12-05T16:13:55.188Z,99130.94
2022-12-05T16:16:24.278Z,99127.56
2022-12-05T16:19:14.122Z,99126.66
2022-12-05T16:22:08.801Z,99125.88
2022-12-05T16:24:55.905Z,99127.56
2022-12-05T16:27:33.359Z,99126.66
2022-12-05T16:30:16.772Z,99133.72
2022-12-05T16:32:44.529Z,99128.47
2022-12-05T16:35:38.990Z,99129.25
2022-12-05T16:38:26.024Z,99133.53
2022-12-05T16:40:58.502Z,99137.81
2022-12-05T16:43:43.009Z,99127.41
2022-12-05T16:46:15.494Z,99130.03
2022-12-05T16:48:47.671Z,99133.50
2022-12-05T16:51:14.594Z,99133.41
2022-12-05T16:53:49.022Z,99122.81
2022-12-05T16:56:20.368Z,99129.97
2022-12-05T16:58:47.414Z,99123.03
2022-12-05T17:01:20.182Z,99123.88
2022-12-05T17:03:47.668Z,99129.09
2022-12-05T17:06:26.963Z,99129.09
2022-12-05T17:08:54.621Z,99142.97
2022-12-05T17:11:24.513Z,99136.72
2022-12-05T17:13:52.089Z,99139.44
2022-12-05T17:16:20.689Z,99132.41
2022-12-05T17:18:47.752Z,99132.50
2022-12-05T17:21:19.268Z,99135.25
2022-12-05T17:23:48.189Z,99139.56
2022-12-05T17:26:18.144Z,99135.19
2022-12-05T17:28:45.632Z,99135.88
2022-12-05T17:31:15.256Z,99136.66
2022-12-05T17:33:42.328Z,99137.56
2022-12-05T17:36:09.380Z,99142.97
2022-12-05T17:38:35.990Z,99148.03
2022-12-05T17:41:05.542Z,99145.41
2022-12-05T17:43:34.497Z,99145.47
2022-12-05T17:46:01.807Z,99139.44
2022-12-05T17:48:29.029Z,99137.72
2022-12-05T17:50:58.650Z,99141.25
2022-12-05T17:53:25.463Z,99146.50
2022-12-05T17:55:52.313Z,99147.34
2022-12-05T17:58:19.007Z,99140.25
2022-12-05T18:00:46.791Z,99136.88
2022-12-05T18:03:17.510Z,99150.03
2022-12-05T18:05:44.801Z,99144.78
2022-12-05T18:08:11.881Z,99139.72
2022-12-05T18:10:42.827Z,99140.41
2022-12-05T18:13:10.425Z,99137.88
2022-12-05T18:15:42.413Z,99140.34
2022-12-05T18:18:14.863Z,99139.44
2022-12-05T18:20:41.509Z,99147.19
2022-12-05T18:23:08.194Z,99147.19
2022-12-05T18:25:34.844Z,99148.09
2022-12-05T18:28:01.458Z,99149.81
2022-12-05T18:30:28.280Z,99146.22
2022-12-05T18:32:55.121Z,99156.59
2022-12-05T18:35:40.165Z,99153.13
2022-12-05T18:38:10.830Z,99150.44
2022-12-05T18:40:37.573Z,99154.84
2022-12-05T18:43:04.421Z,99156.50
2022-12-05T18:45:32.732Z,99159.97
2022-12-05T18:48:09.811Z,99158.22
2022-12-05T18:50:42.985Z,99150.31
2022-12-05T18:53:09.605Z,99155.59
2022-12-05T18:55:58.396Z,99158.22
2022-12-05T18:58:23.987Z,99161.75
2022-12-05T19:00:50.616Z,99156.59
2022-12-05T19:03:17.229Z,99154.00
2022-12-05T19:05:43.909Z,99164.34
2022-12-05T19:08:10.548Z,99165.16
2022-12-05T19:10:37.215Z,99166.13
2022-12-05T19:13:03.813Z,99170.38
2022-12-05T19:15:30.419Z,99171.22
2022-12-05T19:17:57.107Z,99166.84
2022-12-05T19:20:23.704Z,99170.25
2022-12-05T19:22:50.401Z,99167.63
2022-12-05T19:25:16.983Z,99172.69
2022-12-05T19:27:43.696Z,99173.63
2022-12-05T19:30:10.944Z,99175.31
2022-12-05T19:32:40.417Z,99175.31
2022-12-05T19:35:08.018Z,99173.63
2022-12-05T19:37:35.580Z,99176.16
2022-12-05T19:40:02.429Z,99173.63
2022-12-05T19:42:29.697Z,99171.22
2022-12-05T19:44:56.423Z,99170.38
2022-12-05T19:47:23.170Z,99176.31
2022-12-05T19:49:49.928Z,99175.47
2022-12-05T19:52:18.145Z,99171.16
2022-12-05T19:54:45.225Z,99163.16
2022-12-05T19:57:12.440Z,99167.53
2022-12-05T19:59:39.135Z,99166.56
2022-12-05T20:02:05.956Z,99166.56
2022-12-05T20:04:32.778Z,99165.66
2022-12-05T20:06:59.554Z,99162.25
2022-12-05T20:09:26.458Z,99168.25
2022-12-05T20:11:55.591Z,99166.41
2022-12-05T20:14:24.622Z,99168.25
2022-12-05T20:16:52.696Z,99164.72
2022-12-05T20:19:19.521Z,99165.66
2022-12-05T20:21:46.149Z,99163.78
2022-12-05T20:24:12.838Z,99165.56
2022-12-05T20:26:41.981Z,99163.03
2022-12-05T20:29:08.795Z,99170.94
2022-12-05T20:31:39.004Z,99166.56
2022-12-05T20:34:07.015Z,99163.09
2022-12-05T20:36:35.304Z,99159.63
2022-12-05T20:39:05.428Z,99158.78
2022-12-05T20:41:32.324Z,99164.84
2022-12-05T20:44:02.245Z,99160.53
2022-12-05T20:46:29.906Z,99171.00
2022-12-05T20:48:56.820Z,99171.00
2022-12-05T20:51:32.417Z,99167.47
2022-12-05T20:54:00.907Z,99174.47
2022-12-05T20:56:29.812Z,99176.31
2022-12-05T20:58:59.418Z,99168.38
2022-12-05T21:01:27.776Z,99180.63
2022-12-05T21:03:55.074Z,99173.63
2022-12-05T21:06:31.239Z,99175.31
2022-12-05T21:08:59.108Z,99176.03
2022-12-05T21:11:27.485Z,99178.56
2022-12-05T21:14:05.100Z,99177.00
2022-12-05T21:16:31.994Z,99180.53
2022-12-05T21:19:00.057Z,99177.00
2022-12-05T21:21:28.890Z,99168.25
2022-12-05T21:24:00.708Z,99171.78
2022-12-05T21:26:30.193Z,99172.69
2022-12-05T21:28:56.964Z,99173.72
2022-12-05T21:31:26.773Z,99171.09
2022-12-05T21:33:55.821Z,99172.00
2022-12-05T21:36:23.910Z,99165.88
2022-12-05T21:38:55.588Z,99164.00
2022-12-05T21:41:26.370Z,99164.84
2022-12-05T21:43:55.229Z,99169.09
2022-12-05T21:46:22.646Z,99158.56
2022-12-05T21:48:49.383Z,99163.78
2022-12-05T21:51:16.117Z,99162.88
2022-12-05T21:53:43.122Z,99163.78
2022-12-05T21:56:15.629Z,99165.56
2022-12-05T21:58:44.018Z,99169.00
2022-12-05T22:01:12.627Z,99159.41
2022-12-05T22:03:39.366Z,99157.78
2022-12-05T22:06:08.483Z,99152.56
2022-12-05T22:08:36.004Z,99149.94
2022-12-05T22:11:07.771Z,99150.88
2022-12-05T22:13:34.530Z,99149.16
2022-12-05T22:16:02.157Z,99151.84
2022-12-05T22:18:29.063Z,99150.94
2022-12-05T22:20:59.960Z,99151.84
2022-12-05T22:23:27.462Z,99153.53
2022-12-05T22:26:04.786Z,99160.47
2022-12-05T22:28:32.146Z,99157.84
2022-12-05T22:31:01.568Z,99158.72
2022-12-05T22:33:28.499Z,99156.09
2022-12-05T22:35:57.731Z,99155.31
2022-12-05T22:38:25.453Z,99151.00
2022-12-05T22:41:00.938Z,99145.75
2022-12-05T22:43:29.454Z,99151.84
2022-12-05T22:45:56.285Z,99150.88
2022-12-05T22:48:26.390Z,99145.75
2022-12-05T22:50:54.446Z,99148.38
2022-12-05T22:53:23.006Z,99140.53
2022-12-05T22:55:50.247Z,99137.00
2022-12-05T22:58:17.546Z,99139.78
2022-12-05T23:00:45.048Z,99134.63
2022-12-05T23:03:11.854Z,99143.25
2022-12-05T23:05:40.256Z,99132.84
2022-12-05T23:08:07.462Z,99128.53
2022-12-05T23:10:34.358Z,99132.06
2022-12-05T23:13:01.038Z,99128.69
2022-12-05T23:15:27.632Z,99137.44
2022-12-05T23:17:54.520Z,99128.69
2022-12-05T23:20:21.126Z,99126.13
2022-12-05T23:22:47.779Z,99124.28
2022-12-05T23:25:14.461Z,99120.75
2022-12-05T23:27:41.143Z,99119.91
2022-12-05T23:30:08.521Z,99121.59
2022-12-05T23:32:35.101Z,99117.28
2022-12-05T23:35:01.788Z,99115.53
2022-12-05T23:37:28.427Z,99117.94
2022-12-05T23:39:55.114Z,99110.22
2022-12-05T23:42:22.618Z,99109.31
2022-12-05T23:44:49.260Z,99110.09
2022-12-05T23:47:15.985Z,99110.00
2022-12-05T23:49:42.584Z,99108.03
2022-12-05T23:52:09.495Z,99111.47
2022-12-05T23:54:36.143Z,99106.25
2022-12-05T23:57:05.833Z,99100.09
2022-12-05T23:59:32.512Z,99095.03
